Time;durP1;ratioP1;P1;durP2;ratioP2;P2;SDS_P1;SDS_P2;PMS_P1;PMS_P2;Temp;Humidity;BMP_temperature;BMP_pressure;BME280_temperature;BME280_humidity;BME280_pressure;Samples;Min_cycle;Max_cycle;Signal;HPM_P1;HPM_P2
2022/05/24 00:01:52;;;;;;;;;;;26.30;47.70;;;;;;1520453;77;798;-66
2022/05/24 00:03:56;;;;;;;;;;;26.30;47.80;;;;;;1529603;76;736;-66
2022/05/24 00:05:58;;;;;;;;;;;26.30;47.70;;;;;;1536154;76;1687;-66
2022/05/24 00:08:00;;;;;;;;;;;26.30;47.70;;;;;;1532685;77;739;-65
2022/05/24 00:10:01;;;;;;;;;;;26.30;47.70;;;;;;1531794;76;1297;-64
2022/05/24 00:12:04;;;;;;;;;;;26.30;47.70;;;;;;1526822;77;722;-65
2022/05/24 00:14:06;;;;;;;;;;;26.30;47.70;;;;;;1529229;78;752;-63
2022/05/24 00:16:07;;;;;;;;;;;26.30;47.70;;;;;;1548153;75;1140;-62
2022/05/24 00:18:13;;;;;;;;;;;26.30;47.60;;;;;;1542053;76;1969;-62
2022/05/24 00:20:15;;;;;;;;;;;26.40;47.50;;;;;;1526103;76;603;-64
2022/05/24 00:22:17;;;;;;;;;;;26.30;47.50;;;;;;1533879;77;781;-63
2022/05/24 00:24:19;;;;;;;;;;;26.40;47.50;;;;;;1553372;76;1612;-63
2022/05/24 00:26:22;;;;;;;;;;;26.30;47.50;;;;;;1536849;76;1204;-63
2022/05/24 00:28:25;;;;;;;;;;;26.30;47.50;;;;;;1537113;77;793;-64
2022/05/24 00:30:27;;;;;;;;;;;26.30;47.50;;;;;;1541672;77;770;-64
2022/05/24 00:32:28;;;;;;;;;;;26.30;47.50;;;;;;1552282;76;717;-64
2022/05/24 00:34:30;;;;;;;;;;;26.30;47.40;;;;;;1542918;76;719;-64
2022/05/24 00:36:32;;;;;;;;;;;26.40;47.40;;;;;;1568382;74;1135;-64
2022/05/24 00:38:36;;;;;;;;;;;26.30;47.40;;;;;;1548676;76;1938;-64
2022/05/24 00:40:49;;;;;;;;;;;26.30;47.40;;;;;;1541102;77;775;-64
2022/05/24 00:42:51;;;;;;;;;;;26.30;47.40;;;;;;1516393;78;734;-64
2022/05/24 00:44:54;;;;;;;;;;;26.30;47.40;;;;;;1516404;78;813;-64
2022/05/24 00:47:00;;;;;;;;;;;26.30;47.40;;;;;;1529103;76;1147;-64
2022/05/24 00:49:04;;;;;;;;;;;26.30;47.40;;;;;;1526950;77;703;-64
2022/05/24 00:51:06;;;;;;;;;;;26.30;47.40;;;;;;1539999;76;786;-64
2022/05/24 00:53:09;;;;;;;;;;;26.20;47.50;;;;;;1530497;76;1458;-64
2022/05/24 00:55:12;;;;;;;;;;;26.30;47.40;;;;;;1538714;77;737;-64
2022/05/24 00:57:17;;;;;;;;;;;26.30;47.40;;;;;;1542035;76;1963;-64
2022/05/24 00:59:24;;;;;;;;;;;26.30;47.30;;;;;;1521272;77;952;-66
2022/05/24 01:01:31;;;;;;;;;;;26.30;47.30;;;;;;1532962;76;2300;-66
2022/05/24 01:03:32;;;;;;;;;;;26.30;47.30;;;;;;1518092;77;797;-66
2022/05/24 01:05:34;;;;;;;;;;;26.30;47.30;;;;;;1518634;77;784;-66
2022/05/24 01:07:37;;;;;;;;;;;26.40;47.30;;;;;;1534877;76;1520;-66
2022/05/24 01:09:46;;;;;;;;;;;26.30;47.30;;;;;;1537177;77;760;-66
2022/05/24 01:11:49;;;;;;;;;;;26.40;47.20;;;;;;1530505;78;662;-65
2022/05/24 01:13:51;;;;;;;;;;;26.30;47.30;;;;;;1531532;77;674;-65
2022/05/24 01:15:53;;;;;;;;;;;26.30;47.30;;;;;;1536506;76;737;-65
2022/05/24 01:17:55;;;;;;;;;;;26.30;47.30;;;;;;1538603;76;1939;-66
2022/05/24 01:19:57;;;;;;;;;;;26.30;47.30;;;;;;1542020;77;854;-66
2022/05/24 01:22:01;;;;;;;;;;;26.30;47.30;;;;;;1533458;77;833;-66
2022/05/24 01:24:07;;;;;;;;;;;26.30;47.30;;;;;;1533821;77;711;-66
2022/05/24 01:26:13;;;;;;;;;;;26.30;47.40;;;;;;1540029;76;1164;-65
2022/05/24 01:28:17;;;;;;;;;;;26.30;47.40;;;;;;1534417;77;718;-66
2022/05/24 01:30:19;;;;;;;;;;;26.30;47.40;;;;;;1551032;76;774;-65
2022/05/24 01:37:00;;;;;;;;;;;26.30;47.30;;;;;;1537079;76;1687;-65
2022/05/24 01:39:04;;;;;;;;;;;26.30;47.40;;;;;;1516370;78;1941;-65
2022/05/24 01:41:06;;;;;;;;;;;26.20;47.40;;;;;;1516939;77;740;-65
2022/05/24 01:43:07;;;;;;;;;;;26.10;47.40;;;;;;1541682;76;773;-66
2022/05/24 01:45:13;;;;;;;;;;;26.30;47.30;;;;;;1540040;76;723;-65
2022/05/24 01:47:15;;;;;;;;;;;26.20;47.40;;;;;;1530507;76;1165;-66
2022/05/24 01:49:19;;;;;;;;;;;26.30;47.40;;;;;;1522671;76;1377;-65
2022/05/24 01:51:22;;;;;;;;;;;26.20;47.30;;;;;;1532239;77;1151;-65
2022/05/24 01:53:26;;;;;;;;;;;26.20;47.30;;;;;;1533532;76;1909;-64
2022/05/24 01:55:31;;;;;;;;;;;26.30;47.30;;;;;;1553591;76;840;-64
2022/05/24 01:57:35;;;;;;;;;;;26.30;47.10;;;;;;1552258;75;1937;-64
2022/05/24 01:59:37;;;;;;;;;;;26.30;47.20;;;;;;1516633;77;861;-64
2022/05/24 02:01:52;;;;;;;;;;;26.30;47.20;;;;;;1531318;77;852;-64
2022/05/24 02:03:54;;;;;;;;;;;26.30;47.20;;;;;;1526828;77;1662;-63
2022/05/24 02:05:56;;;;;;;;;;;26.20;47.20;;;;;;1537369;76;1148;-63
2022/05/24 02:07:58;;;;;;;;;;;26.30;47.10;;;;;;1535703;77;793;-64
2022/05/24 02:09:59;;;;;;;;;;;26.30;47.10;;;;;;1533522;77;778;-65
2022/05/24 02:12:06;;;;;;;;;;;26.30;47.10;;;;;;1527758;77;634;-65
2022/05/24 02:14:15;;;;;;;;;;;26.30;47.10;;;;;;1520593;78;779;-65
2022/05/24 02:16:21;;;;;;;;;;;26.30;47.20;;;;;;1535313;76;1700;-65
2022/05/24 02:18:22;;;;;;;;;;;26.20;47.10;;;;;;1537733;77;1931;-65
2022/05/24 02:20:30;;;;;;;;;;;26.30;47.20;;;;;;1538721;77;803;-65
2022/05/24 02:22:32;;;;;;;;;;;26.20;47.20;;;;;;1538406;77;724;-65
2022/05/24 02:24:34;;;;;;;;;;;26.20;47.20;;;;;;1535259;77;739;-66
2022/05/24 02:26:36;;;;;;;;;;;26.20;47.20;;;;;;1541354;76;1154;-66
2022/05/24 02:28:38;;;;;;;;;;;26.20;47.20;;;;;;1540868;77;754;-64
2022/05/24 02:30:41;;;;;;;;;;;26.20;47.10;;;;;;1522938;77;1589;-65
2022/05/24 02:32:43;;;;;;;;;;;26.20;47.10;;;;;;1535132;77;708;-65
2022/05/24 02:34:45;;;;;;;;;;;26.30;47.10;;;;;;1531714;77;779;-66
2022/05/24 02:36:46;;;;;;;;;;;26.30;47.10;;;;;;1530584;77;1235;-65
2022/05/24 02:38:48;;;;;;;;;;;26.20;47.10;;;;;;1516463;78;1934;-65
2022/05/24 02:43:10;;;;;;;;;;;26.20;47.00;;;;;;1516317;78;1665;-65
2022/05/24 02:45:12;;;;;;;;;;;26.20;47.00;;;;;;1527031;77;1677;-65
2022/05/24 02:47:14;;;;;;;;;;;26.20;47.00;;;;;;1532194;76;1164;-66
2022/05/24 02:49:17;;;;;;;;;;;26.20;47.00;;;;;;1542246;77;801;-65
2022/05/24 02:51:19;;;;;;;;;;;26.20;47.00;;;;;;1529587;77;733;-66
2022/05/24 02:53:20;;;;;;;;;;;26.20;47.10;;;;;;1533382;76;824;-65
2022/05/24 02:55:22;;;;;;;;;;;26.20;47.10;;;;;;1534883;77;742;-65
2022/05/24 02:57:24;;;;;;;;;;;26.20;47.10;;;;;;1532873;76;1174;-66
2022/05/24 02:59:26;;;;;;;;;;;26.20;47.10;;;;;;1536691;76;1931;-65
2022/05/24 03:01:28;;;;;;;;;;;26.20;47.10;;;;;;1534123;77;731;-66
2022/05/24 03:03:30;;;;;;;;;;;26.20;47.10;;;;;;1520751;77;799;-66
2022/05/24 03:05:32;;;;;;;;;;;26.20;47.10;;;;;;1516445;78;730;-65
2022/05/24 03:09:54;;;;;;;;;;;26.20;47.10;;;;;;1531782;77;1661;-67
2022/05/24 03:14:16;;;;;;;;;;;26.10;47.10;;;;;;1531132;76;1653;-67
2022/05/24 03:16:18;;;;;;;;;;;26.10;47.10;;;;;;1533373;76;1136;-67
2022/05/24 03:18:21;;;;;;;;;;;26.10;47.30;;;;;;1524426;77;1949;-68
2022/05/24 03:20:22;;;;;;;;;;;26.10;47.30;;;;;;1536935;76;792;-66
2022/05/24 03:22:24;;;;;;;;;;;26.10;47.30;;;;;;1520478;76;813;-68
2022/05/24 03:24:26;;;;;;;;;;;26.10;47.30;;;;;;1528602;76;704;-68
2022/05/24 03:26:28;;;;;;;;;;;26.10;47.30;;;;;;1531097;76;1196;-68
2022/05/24 03:28:30;;;;;;;;;;;26.10;47.30;;;;;;1540788;76;1665;-67
2022/05/24 03:30:33;;;;;;;;;;;26.10;47.40;;;;;;1534628;76;767;-68
2022/05/24 03:32:35;;;;;;;;;;;26.00;47.30;;;;;;1532197;77;703;-68
2022/05/24 03:34:37;;;;;;;;;;;26.10;47.40;;;;;;1532088;76;665;-68
2022/05/24 03:36:38;;;;;;;;;;;26.00;47.40;;;;;;1538343;73;2054;-64
2022/05/24 03:38:40;;;;;;;;;;;26.10;47.40;;;;;;1605692;72;1925;-67
2022/05/24 03:40:42;;;;;;;;;;;26.00;47.40;;;;;;1602511;73;1547;-67
2022/05/24 03:42:45;;;;;;;;;;;26.00;47.40;;;;;;1600090;73;756;-68
2022/05/24 03:44:47;;;;;;;;;;;26.00;47.40;;;;;;1602657;73;818;-67
2022/05/24 03:46:49;;;;;;;;;;;26.00;47.40;;;;;;1597101;73;1174;-69
2022/05/24 03:48:51;;;;;;;;;;;26.00;47.30;;;;;;1573459;74;730;-67
2022/05/24 03:50:53;;;;;;;;;;;26.00;47.30;;;;;;1578966;74;728;-65
2022/05/24 03:52:54;;;;;;;;;;;26.00;47.30;;;;;;1586007;74;713;-66
2022/05/24 03:54:56;;;;;;;;;;;26.00;47.30;;;;;;1579528;74;1487;-66
2022/05/24 03:59:18;;;;;;;;;;;26.00;47.30;;;;;;1591027;74;1909;-67
2022/05/24 04:01:20;;;;;;;;;;;26.00;47.20;;;;;;1580027;74;727;-68
2022/05/24 04:03:22;;;;;;;;;;;26.00;47.20;;;;;;1578161;74;699;-69
2022/05/24 04:05:24;;;;;;;;;;;26.00;47.20;;;;;;1577764;74;793;-68
2022/05/24 04:07:26;;;;;;;;;;;26.00;47.30;;;;;;1596517;73;1234;-70
2022/05/24 04:09:28;;;;;;;;;;;26.00;47.20;;;;;;1583123;74;1486;-66
2022/05/24 04:11:30;;;;;;;;;;;26.00;47.20;;;;;;1576436;74;778;-66
2022/05/24 04:13:33;;;;;;;;;;;26.00;47.20;;;;;;1583312;74;764;-64
2022/05/24 04:15:35;;;;;;;;;;;26.00;47.10;;;;;;1582511;74;726;-66
2022/05/24 04:17:37;;;;;;;;;;;26.00;47.10;;;;;;1588214;74;1173;-67
2022/05/24 04:19:39;;;;;;;;;;;26.00;47.20;;;;;;1582907;74;1951;-66
2022/05/24 04:21:41;;;;;;;;;;;26.00;47.20;;;;;;1583003;74;724;-65
2022/05/24 04:23:43;;;;;;;;;;;26.00;47.30;;;;;;1586589;73;1592;-65
2022/05/24 04:25:45;;;;;;;;;;;26.00;47.30;;;;;;1584094;74;717;-66
2022/05/24 04:27:46;;;;;;;;;;;26.00;47.20;;;;;;1587729;73;1176;-67
2022/05/24 04:29:51;;;;;;;;;;;26.00;47.30;;;;;;1589812;73;679;-66
2022/05/24 04:31:52;;;;;;;;;;;26.00;47.30;;;;;;1577551;74;1122;-66
2022/05/24 04:33:54;;;;;;;;;;;26.00;47.30;;;;;;1584201;74;716;-68
2022/05/24 04:35:56;;;;;;;;;;;26.00;47.30;;;;;;1581653;74;771;-68
2022/05/24 04:37:59;;;;;;;;;;;26.00;47.30;;;;;;1598889;73;1802;-67
2022/05/24 04:40:01;;;;;;;;;;;26.00;47.40;;;;;;1597135;73;1934;-69
2022/05/24 04:42:25;;;;;;;;;;;26.00;47.40;;;;;;1589380;74;806;-68
2022/05/24 04:44:24;;;;;;;;;;;26.00;47.40;;;;;;1590970;73;1431;-70
2022/05/24 04:47:06;;;;;;;;;;;26.00;47.40;;;;;;1575203;74;1135;-68
2022/05/24 04:48:30;;;;;;;;;;;26.00;47.40;;;;;;1577223;74;1393;-66
2022/05/24 04:50:32;;;;;;;;;;;26.00;47.40;;;;;;1593424;73;776;-66
2022/05/24 04:52:35;;;;;;;;;;;26.00;47.40;;;;;;1587049;74;1477;-65
2022/05/24 04:54:38;;;;;;;;;;;26.00;47.40;;;;;;1576511;74;861;-63
2022/05/24 04:56:40;;;;;;;;;;;26.10;47.30;;;;;;1574253;74;1136;-66
2022/05/24 04:58:42;;;;;;;;;;;26.10;47.40;;;;;;1579363;74;1936;-65
2022/05/24 05:00:44;;;;;;;;;;;26.10;47.30;;;;;;1597260;74;718;-66
2022/05/24 05:02:46;;;;;;;;;;;26.00;47.30;;;;;;1600429;74;726;-65
2022/05/24 05:04:48;;;;;;;;;;;26.10;47.30;;;;;;1547696;75;735;-69
2022/05/24 05:06:50;;;;;;;;;;;26.10;47.20;;;;;;1578658;74;1450;-69
2022/05/24 05:08:51;;;;;;;;;;;26.20;47.10;;;;;;1572704;75;768;-69
2022/05/24 05:10:53;;;;;;;;;;;26.20;47.10;;;;;;1537519;76;810;-68
2022/05/24 05:12:55;;;;;;;;;;;26.10;47.00;;;;;;1554101;76;779;-69
2022/05/24 05:14:57;;;;;;;;;;;26.10;47.00;;;;;;1555417;76;724;-70
2022/05/24 05:16:59;;;;;;;;;;;26.10;47.00;;;;;;1562819;75;1115;-68
2022/05/24 05:19:01;;;;;;;;;;;26.10;46.90;;;;;;1563915;75;1908;-69
2022/05/24 05:21:03;;;;;;;;;;;26.10;46.90;;;;;;1556173;75;674;-67
2022/05/24 05:23:07;;;;;;;;;;;26.20;47.00;;;;;;1564723;75;729;-69
2022/05/24 05:25:09;;;;;;;;;;;26.10;47.10;;;;;;1563422;75;1704;-69
2022/05/24 05:27:11;;;;;;;;;;;26.10;47.10;;;;;;1543757;76;1158;-69
2022/05/24 05:29:13;;;;;;;;;;;26.00;47.10;;;;;;1536432;76;783;-70
2022/05/24 05:31:19;;;;;;;;;;;26.00;47.20;;;;;;1550731;75;773;-68
2022/05/24 05:33:21;;;;;;;;;;;26.10;47.10;;;;;;1552015;75;2134;-69
2022/05/24 05:35:22;;;;;;;;;;;26.00;47.30;;;;;;1577849;75;691;-67
2022/05/24 05:37:26;;;;;;;;;;;26.00;47.00;;;;;;1565242;75;1116;-67
2022/05/24 05:39:29;;;;;;;;;;;26.10;46.90;;;;;;1578211;75;1936;-67
2022/05/24 05:41:31;;;;;;;;;;;26.10;46.90;;;;;;1577356;75;1070;-69
2022/05/24 05:43:33;;;;;;;;;;;26.10;46.90;;;;;;1565491;75;737;-68
2022/05/24 05:45:35;;;;;;;;;;;26.10;46.90;;;;;;1566959;75;587;-70
2022/05/24 05:47:37;;;;;;;;;;;26.10;47.00;;;;;;1578727;73;1583;-69
2022/05/24 05:49:41;;;;;;;;;;;26.00;47.00;;;;;;1558396;75;665;-69
2022/05/24 05:51:42;;;;;;;;;;;25.90;46.50;;;;;;1562830;75;1704;-70
2022/05/24 05:53:44;;;;;;;;;;;25.90;46.50;;;;;;1571471;75;675;-67
2022/05/24 05:55:46;;;;;;;;;;;25.90;46.60;;;;;;1580571;75;744;-68
2022/05/24 05:57:48;;;;;;;;;;;25.90;46.50;;;;;;1580348;73;1126;-68
2022/05/24 05:59:50;;;;;;;;;;;25.90;46.50;;;;;;1563285;75;1926;-68
2022/05/24 06:01:52;;;;;;;;;;;25.90;46.60;;;;;;1566735;75;1480;-69
2022/05/24 06:03:54;;;;;;;;;;;25.90;46.70;;;;;;1585950;75;799;-69
2022/05/24 06:05:58;;;;;;;;;;;25.90;46.60;;;;;;1570824;75;777;-67
2022/05/24 06:07:59;;;;;;;;;;;25.90;46.60;;;;;;1575760;75;1146;-66
2022/05/24 06:10:01;;;;;;;;;;;25.80;46.70;;;;;;1569241;75;783;-67
2022/05/24 06:12:03;;;;;;;;;;;25.90;46.80;;;;;;1572088;75;768;-67
2022/05/24 06:14:05;;;;;;;;;;;25.80;46.90;;;;;;1564012;75;746;-67
2022/05/24 06:16:08;;;;;;;;;;;25.80;47.00;;;;;;1571548;75;1425;-67
2022/05/24 06:18:10;;;;;;;;;;;25.90;47.10;;;;;;1570565;75;1076;-67
2022/05/24 06:20:12;;;;;;;;;;;25.80;47.10;;;;;;1571463;75;1943;-65
2022/05/24 06:22:14;;;;;;;;;;;25.80;47.20;;;;;;1577958;75;712;-66
2022/05/24 06:24:16;;;;;;;;;;;25.80;47.00;;;;;;1580941;75;770;-68
2022/05/24 06:26:20;;;;;;;;;;;25.80;46.80;;;;;;1570026;75;1136;-68
2022/05/24 06:28:22;;;;;;;;;;;25.90;46.80;;;;;;1569639;75;748;-68
2022/05/24 06:30:24;;;;;;;;;;;25.80;46.70;;;;;;1571882;74;1436;-69
2022/05/24 06:32:25;;;;;;;;;;;25.70;46.60;;;;;;1573508;74;720;-70
2022/05/24 06:34:29;;;;;;;;;;;25.80;46.60;;;;;;1573862;75;816;-69
2022/05/24 06:36:31;;;;;;;;;;;25.70;46.50;;;;;;1563810;75;1640;-69
2022/05/24 06:38:33;;;;;;;;;;;25.80;46.50;;;;;;1578436;75;779;-68
2022/05/24 06:40:35;;;;;;;;;;;25.70;46.50;;;;;;1568817;75;1897;-68
2022/05/24 06:42:37;;;;;;;;;;;25.80;46.40;;;;;;1577429;75;682;-69
2022/05/24 06:44:38;;;;;;;;;;;25.70;46.40;;;;;;1573179;75;1499;-69
2022/05/24 06:46:40;;;;;;;;;;;25.70;46.40;;;;;;1578014;73;1127;-68
2022/05/24 06:48:45;;;;;;;;;;;25.70;46.30;;;;;;1571325;75;740;-68
2022/05/24 06:50:47;;;;;;;;;;;25.70;46.20;;;;;;1565555;75;681;-71
2022/05/24 06:52:51;;;;;;;;;;;25.70;46.10;;;;;;1578127;75;735;-66
2022/05/24 06:54:54;;;;;;;;;;;25.70;46.10;;;;;;1589309;75;774;-68
2022/05/24 06:56:56;;;;;;;;;;;25.70;46.10;;;;;;1572823;75;1101;-67
2022/05/24 07:03:33;;;;;;;;;;;25.70;46.00;;;;;;1523747;76;1150;-67
2022/05/24 07:05:35;;;;;;;;;;;25.60;46.00;;;;;;1562887;75;735;-67
2022/05/24 07:07:37;;;;;;;;;;;25.70;46.00;;;;;;1579409;75;1136;-68
2022/05/24 07:09:40;;;;;;;;;;;25.60;46.00;;;;;;1577839;75;692;-68
2022/05/24 07:11:42;;;;;;;;;;;25.60;46.00;;;;;;1567027;75;1561;-67
2022/05/24 07:13:44;;;;;;;;;;;25.50;45.80;;;;;;1565111;75;676;-66
2022/05/24 07:15:46;;;;;;;;;;;25.50;45.70;;;;;;1583913;75;687;-66
2022/05/24 07:17:48;;;;;;;;;;;25.50;45.60;;;;;;1565522;75;1136;-67
2022/05/24 07:19:50;;;;;;;;;;;25.50;45.60;;;;;;1572304;75;1922;-67
2022/05/24 07:21:52;;;;;;;;;;;25.50;45.50;;;;;;1577095;75;686;-70
2022/05/24 07:23:54;;;;;;;;;;;25.50;45.60;;;;;;1571409;75;597;-66
2022/05/24 07:25:57;;;;;;;;;;;25.50;45.50;;;;;;1578626;75;1475;-67
2022/05/24 07:27:59;;;;;;;;;;;25.50;45.60;;;;;;1548135;76;1239;-68
2022/05/24 07:30:01;;;;;;;;;;;25.50;45.60;;;;;;1573534;75;692;-67
2022/05/24 07:32:04;;;;;;;;;;;25.50;45.60;;;;;;1583049;75;706;-68
2022/05/24 07:34:06;;;;;;;;;;;25.50;45.50;;;;;;1569798;75;683;-68
2022/05/24 07:36:08;;;;;;;;;;;25.40;45.40;;;;;;1568535;74;724;-69
2022/05/24 07:38:11;;;;;;;;;;;25.40;45.40;;;;;;1575636;73;1123;-65
2022/05/24 07:47:13;;;;;;;;;;;25.30;45.20;;;;;;1561220;75;1662;-67
2022/05/24 07:49:15;;;;;;;;;;;25.40;45.20;;;;;;1576956;75;681;-67
2022/05/24 07:51:16;;;;;;;;;;;25.40;45.20;;;;;;1568612;75;660;-67
2022/05/24 07:53:18;;;;;;;;;;;25.40;45.20;;;;;;1563659;75;690;-69
2022/05/24 07:55:20;;;;;;;;;;;25.40;45.10;;;;;;1563867;75;1474;-68
2022/05/24 07:57:22;;;;;;;;;;;25.30;45.00;;;;;;1565325;75;1089;-71
2022/05/24 07:59:24;;;;;;;;;;;25.40;45.00;;;;;;1574404;75;692;-66
2022/05/24 08:01:27;;;;;;;;;;;25.30;45.00;;;;;;1557526;75;1945;-69
2022/05/24 08:03:30;;;;;;;;;;;25.40;44.90;;;;;;1555597;75;691;-67
2022/05/24 08:05:32;;;;;;;;;;;25.30;44.80;;;;;;1568114;75;688;-67
2022/05/24 08:07:34;;;;;;;;;;;25.30;44.80;;;;;;1565499;75;1132;-68
2022/05/24 08:09:36;;;;;;;;;;;25.30;44.80;;;;;;1572047;75;1480;-68
2022/05/24 08:11:38;;;;;;;;;;;25.30;44.80;;;;;;1579751;75;707;-67
2022/05/24 08:13:40;;;;;;;;;;;25.30;44.80;;;;;;1567981;75;712;-64
2022/05/24 08:15:42;;;;;;;;;;;25.30;44.80;;;;;;1569929;75;679;-67
2022/05/24 08:17:44;;;;;;;;;;;25.30;44.90;;;;;;1565181;75;1149;-67
2022/05/24 08:19:46;;;;;;;;;;;25.30;45.00;;;;;;1568830;75;1938;-66
2022/05/24 08:21:48;;;;;;;;;;;25.30;44.90;;;;;;1564424;75;722;-69
2022/05/24 08:23:50;;;;;;;;;;;25.30;44.90;;;;;;1579738;74;1680;-68
2022/05/24 08:25:51;;;;;;;;;;;25.30;45.00;;;;;;1587703;75;743;-67
2022/05/24 08:27:53;;;;;;;;;;;25.30;44.90;;;;;;1581509;75;1131;-68
2022/05/24 08:29:57;;;;;;;;;;;25.30;45.00;;;;;;1584882;73;672;-67
2022/05/24 08:31:59;;;;;;;;;;;25.30;45.00;;;;;;1576886;73;759;-69
2022/05/24 08:34:01;;;;;;;;;;;25.40;45.10;;;;;;1586377;74;697;-70
2022/05/24 08:36:02;;;;;;;;;;;25.40;45.10;;;;;;1575874;75;1474;-68
2022/05/24 08:38:05;;;;;;;;;;;25.30;45.10;;;;;;1574313;75;1155;-69
2022/05/24 08:40:07;;;;;;;;;;;25.30;45.10;;;;;;1588751;73;1919;-68
2022/05/24 08:42:23;;;;;;;;;;;25.30;45.20;;;;;;1579323;74;638;-68
2022/05/24 08:49:07;;;;;;;;;;;25.40;45.30;;;;;;1562943;75;1646;-68
2022/05/24 08:51:22;;;;;;;;;;;25.30;45.30;;;;;;1550391;76;1568;-67
2022/05/24 08:53:34;;;;;;;;;;;25.30;45.30;;;;;;1584196;75;612;-69
2022/05/24 08:55:37;;;;;;;;;;;25.30;45.30;;;;;;1584431;74;699;-70
2022/05/24 08:57:49;;;;;;;;;;;25.30;45.30;;;;;;1569652;75;1147;-70
2022/05/24 08:59:59;;;;;;;;;;;25.30;45.30;;;;;;1582035;73;1935;-70
2022/05/24 09:02:01;;;;;;;;;;;25.30;45.30;;;;;;1584936;74;942;-66
2022/05/24 09:04:03;;;;;;;;;;;25.30;45.40;;;;;;1586395;74;665;-68
2022/05/24 09:06:06;;;;;;;;;;;25.30;45.40;;;;;;1579450;73;671;-70
2022/05/24 09:08:10;;;;;;;;;;;25.30;45.40;;;;;;1574006;73;1084;-69
2022/05/24 09:10:13;;;;;;;;;;;25.40;45.40;;;;;;1578924;75;695;-68
2022/05/24 09:12:33;;;;;;;;;;;25.30;45.40;;;;;;1572777;75;1001;-67
2022/05/24 09:14:49;;;;;;;;;;;25.40;45.50;;;;;;1567123;75;681;-65
2022/05/24 09:17:08;;;;;;;;;;;25.30;45.40;;;;;;1574606;73;1126;-68
2022/05/24 09:19:26;;;;;;;;;;;25.40;45.40;;;;;;1540719;76;1528;-69
2022/05/24 09:21:29;;;;;;;;;;;25.40;45.50;;;;;;1576754;75;1927;-69
2022/05/24 09:23:33;;;;;;;;;;;25.30;45.50;;;;;;1578449;75;649;-69
2022/05/24 09:25:35;;;;;;;;;;;25.30;45.50;;;;;;1579714;73;928;-70
2022/05/24 09:27:39;;;;;;;;;;;25.40;45.40;;;;;;1577367;73;1135;-69
2022/05/24 09:29:54;;;;;;;;;;;25.30;45.50;;;;;;1568435;75;981;-68
2022/05/24 09:31:56;;;;;;;;;;;25.40;45.50;;;;;;1577192;75;675;-70
2022/05/24 09:33:59;;;;;;;;;;;25.30;45.40;;;;;;1573685;74;1613;-67
2022/05/24 09:36:01;;;;;;;;;;;25.40;45.40;;;;;;1566082;75;685;-69
2022/05/24 09:38:07;;;;;;;;;;;25.40;45.50;;;;;;1569768;73;3199;-67
2022/05/24 09:40:22;;;;;;;;;;;25.40;45.50;;;;;;1563268;75;1939;-66
2022/05/24 09:42:27;;;;;;;;;;;25.40;45.40;;;;;;1563316;75;687;-67
2022/05/24 09:44:30;;;;;;;;;;;25.40;45.40;;;;;;1534492;75;704;-68
2022/05/24 09:46:32;;;;;;;;;;;25.40;45.40;;;;;;1560398;75;1559;-67
2022/05/24 09:48:35;;;;;;;;;;;25.40;45.40;;;;;;1551230;75;1199;-68
2022/05/24 09:50:37;;;;;;;;;;;25.40;45.40;;;;;;1553663;76;692;-66
2022/05/24 09:52:39;;;;;;;;;;;25.40;45.40;;;;;;1557525;75;710;-69
2022/05/24 09:54:55;;;;;;;;;;;25.50;45.40;;;;;;1553132;76;738;-67
2022/05/24 09:57:01;;;;;;;;;;;25.40;45.30;;;;;;1552226;75;1125;-67
2022/05/24 09:59:05;;;;;;;;;;;25.40;45.40;;;;;;1554028;76;769;-64
2022/05/24 10:01:13;;;;;;;;;;;25.40;45.30;;;;;;1552980;75;1950;-66
2022/05/24 10:03:16;;;;;;;;;;;25.50;45.40;;;;;;1549722;75;694;-67
2022/05/24 10:05:25;;;;;;;;;;;25.40;45.40;;;;;;1515803;76;748;-66
2022/05/24 10:07:31;;;;;;;;;;;25.40;45.30;;;;;;1554690;75;1106;-66
2022/05/24 10:09:50;;;;;;;;;;;25.50;45.30;;;;;;1555106;76;710;-65
2022/05/24 10:11:53;;;;;;;;;;;25.50;45.30;;;;;;1554331;76;760;-67
2022/05/24 10:14:13;;;;;;;;;;;25.50;45.20;;;;;;1552225;76;670;-66
2022/05/24 10:16:19;;;;;;;;;;;25.40;45.20;;;;;;1548655;75;1703;-65
2022/05/24 10:18:38;;;;;;;;;;;25.40;45.20;;;;;;1550808;75;2000;-67
2022/05/24 10:20:42;;;;;;;;;;;25.40;45.20;;;;;;1499374;78;1935;-66
2022/05/24 10:23:02;;;;;;;;;;;25.50;45.20;;;;;;1518936;76;1037;-67
2022/05/24 10:25:11;;;;;;;;;;;25.50;45.20;;;;;;1551601;76;666;-66
2022/05/24 10:27:18;;;;;;;;;;;25.40;45.20;;;;;;1513053;75;1097;-64
2022/05/24 10:29:21;;;;;;;;;;;25.40;45.20;;;;;;1550345;76;1789;-67
2022/05/24 10:31:27;;;;;;;;;;;25.50;45.20;;;;;;1552137;75;1543;-65
2022/05/24 10:38:44;;;;;;;;;;;25.50;45.10;;;;;;1552875;75;861;-66
2022/05/24 10:40:48;;;;;;;;;;;25.50;45.20;;;;;;1543919;76;1921;-67
2022/05/24 10:43:09;;;;;;;;;;;25.50;45.10;;;;;;1548135;75;1802;-67
2022/05/24 10:45:13;;;;;;;;;;;25.40;45.20;;;;;;1542954;75;1938;-67
2022/05/24 10:47:19;;;;;;;;;;;25.50;45.10;;;;;;1542548;75;1168;-66
2022/05/24 10:49:23;;;;;;;;;;;25.50;45.20;;;;;;1552840;75;648;-65
2022/05/24 10:51:47;;;;;;;;;;;25.50;45.20;;;;;;1546051;75;629;-66
2022/05/24 10:53:51;;;;;;;;;;;25.60;45.10;;;;;;1550699;75;1475;-67
2022/05/24 10:56:00;;;;;;;;;;;25.60;45.10;;;;;;1552800;76;761;-66
2022/05/24 10:58:03;;;;;;;;;;;25.60;45.10;;;;;;1542973;76;1546;-65
2022/05/24 11:00:12;;;;;;;;;;;25.60;45.10;;;;;;1543496;76;991;-69
2022/05/24 11:02:20;;;;;;;;;;;25.50;45.20;;;;;;1541332;76;1911;-66
2022/05/24 11:04:34;;;;;;;;;;;25.60;45.20;;;;;;1548120;75;1950;-68
2022/05/24 11:06:42;;;;;;;;;;;25.60;45.20;;;;;;1549922;75;1477;-65
2022/05/24 11:08:48;;;;;;;;;;;25.60;45.20;;;;;;1530504;76;1182;-67
2022/05/24 11:10:51;;;;;;;;;;;25.60;45.20;;;;;;1546725;76;1581;-69
2022/05/24 11:12:54;;;;;;;;;;;25.50;45.20;;;;;;1549417;76;795;-67
2022/05/24 11:15:00;;;;;;;;;;;25.50;45.30;;;;;;1547975;76;768;-64
2022/05/24 11:17:02;;;;;;;;;;;25.50;45.30;;;;;;1550463;75;1507;-67
2022/05/24 11:19:05;;;;;;;;;;;25.50;45.30;;;;;;1550455;76;667;-69
2022/05/24 11:21:12;;;;;;;;;;;25.50;45.40;;;;;;1551815;75;1967;-69
2022/05/24 11:23:18;;;;;;;;;;;25.50;45.40;;;;;;1543661;76;745;-65
2022/05/24 11:25:21;;;;;;;;;;;25.50;45.40;;;;;;1552117;76;1567;-69
2022/05/24 11:27:24;;;;;;;;;;;25.50;45.30;;;;;;1548183;75;1127;-69
2022/05/24 11:29:30;;;;;;;;;;;25.50;45.30;;;;;;1552046;76;761;-69
2022/05/24 11:31:42;;;;;;;;;;;25.50;45.30;;;;;;1552373;76;754;-69
2022/05/24 11:33:44;;;;;;;;;;;25.50;45.40;;;;;;1554538;75;753;-70
2022/05/24 11:35:52;;;;;;;;;;;25.40;45.40;;;;;;1555234;76;728;-68
2022/05/24 11:37:57;;;;;;;;;;;25.50;45.40;;;;;;1551756;75;1145;-71
2022/05/24 11:40:01;;;;;;;;;;;25.50;45.40;;;;;;1547796;76;1583;-73
2022/05/24 11:42:19;;;;;;;;;;;25.50;45.50;;;;;;1543379;76;1945;-70
2022/05/24 11:44:28;;;;;;;;;;;25.50;45.50;;;;;;1553650;76;722;-71
2022/05/24 11:46:37;;;;;;;;;;;25.50;45.50;;;;;;1551940;76;723;-71
2022/05/24 11:48:43;;;;;;;;;;;25.50;45.60;;;;;;1554316;75;668;-71
2022/05/24 11:50:47;;;;;;;;;;;25.50;45.60;;;;;;1550476;76;719;-72
2022/05/24 11:53:07;;;;;;;;;;;25.50;45.60;;;;;;1552885;76;1772;-69
2022/05/24 11:55:09;;;;;;;;;;;25.50;45.60;;;;;;1550353;76;730;-69
2022/05/24 11:57:16;;;;;;;;;;;25.50;45.50;;;;;;1553581;75;1148;-69
2022/05/24 11:59:20;;;;;;;;;;;25.50;45.50;;;;;;1553430;76;701;-71
2022/05/24 12:01:26;;;;;;;;;;;25.50;45.60;;;;;;1547623;76;1921;-69
2022/05/24 12:08:26;;;;;;;;;;;25.50;45.40;;;;;;1546396;76;1644;-70
2022/05/24 12:10:32;;;;;;;;;;;25.50;45.50;;;;;;1534689;75;745;-73
2022/05/24 12:12:35;;;;;;;;;;;25.50;45.50;;;;;;1555325;76;2063;-69
2022/05/24 12:14:37;;;;;;;;;;;25.60;45.50;;;;;;1551757;76;669;-70
2022/05/24 12:16:40;;;;;;;;;;;25.50;45.50;;;;;;1551796;75;1145;-71
2022/05/24 12:18:44;;;;;;;;;;;25.60;45.50;;;;;;1551730;76;696;-69
2022/05/24 12:20:47;;;;;;;;;;;25.60;45.50;;;;;;1555474;76;676;-68
2022/05/24 12:23:15;;;;;;;;;;;25.50;45.50;;;;;;1549235;75;1927;-69
2022/05/24 12:25:18;;;;;;;;;;;25.50;45.60;;;;;;1551422;76;679;-70
2022/05/24 12:27:37;;;;;;;;;;;25.50;45.50;;;;;;1545865;75;1482;-70
2022/05/24 12:29:40;;;;;;;;;;;25.50;45.50;;;;;;1525155;76;1121;-71
2022/05/24 12:31:44;;;;;;;;;;;25.50;45.40;;;;;;1563344;75;1934;-70
2022/05/24 12:33:46;;;;;;;;;;;25.50;45.50;;;;;;1553878;76;964;-68
2022/05/24 12:36:08;;;;;;;;;;;25.60;45.50;;;;;;1550528;76;1624;-68
2022/05/24 12:38:12;;;;;;;;;;;25.70;45.50;;;;;;1548495;75;1146;-67
2022/05/24 12:40:19;;;;;;;;;;;25.70;45.40;;;;;;1554448;76;2289;-69
2022/05/24 12:42:21;;;;;;;;;;;25.70;45.40;;;;;;1551969;76;1939;-67
2022/05/24 12:44:23;;;;;;;;;;;25.60;45.40;;;;;;1548383;76;678;-67
2022/05/24 12:46:27;;;;;;;;;;;25.70;45.30;;;;;;1557742;75;687;-67
2022/05/24 12:48:33;;;;;;;;;;;25.60;45.30;;;;;;1554259;75;1187;-66
2022/05/24 12:50:36;;;;;;;;;;;25.50;45.40;;;;;;1551773;76;1341;-67
2022/05/24 12:52:41;;;;;;;;;;;25.60;45.30;;;;;;1548130;75;674;-69
2022/05/24 12:54:45;;;;;;;;;;;25.50;45.30;;;;;;1543470;75;725;-67
2022/05/24 12:56:54;;;;;;;;;;;25.60;45.30;;;;;;1548805;75;1823;-67
2022/05/24 12:58:57;;;;;;;;;;;25.60;45.20;;;;;;1563426;75;1787;-67